Time;durP1;ratioP1;P1;durP2;ratioP2;P2;SDS_P1;SDS_P2;PMS_P1;PMS_P2;Temp;Humidity;BMP_temperature;BMP_pressure;BME280_temperature;BME280_humidity;BME280_pressure;Samples;Min_cycle;Max_cycle;Signal;HPM_P1;HPM_P2
2022/06/26 00:00:43;;;;;;;9.18;5.15;;;17.60;99.90;;;;;;5060409;28;20060;-80
2022/06/26 00:03:09;;;;;;;9.63;4.78;;;17.60;99.90;;;;;;5060084;28;20072;-79
2022/06/26 00:05:35;;;;;;;7.00;5.68;;;17.60;99.90;;;;;;5058828;28;20495;-79
2022/06/26 00:08:01;;;;;;;7.97;5.75;;;17.70;99.90;;;;;;5058272;28;20036;-80
2022/06/26 00:10:27;;;;;;;9.77;5.95;;;17.70;99.90;;;;;;5060105;28;20086;-79
2022/06/26 00:12:53;;;;;;;6.32;5.13;;;17.70;99.90;;;;;;5041832;28;20123;-79
2022/06/26 00:15:19;;;;;;;8.80;3.85;;;17.70;99.90;;;;;;5058766;28;20119;-78
2022/06/26 00:17:44;;;;;;;11.40;4.93;;;17.60;99.90;;;;;;5057818;28;20048;-79
2022/06/26 00:20:10;;;;;;;8.95;3.35;;;17.60;99.90;;;;;;5059777;28;20037;-80
2022/06/26 00:22:36;;;;;;;5.65;3.75;;;17.50;99.90;;;;;;5042177;28;20390;-80
2022/06/26 00:25:02;;;;;;;9.38;5.90;;;17.50;99.90;;;;;;5075009;28;20036;-82
2022/06/26 00:27:28;;;;;;;5.35;4.70;;;17.40;99.90;;;;;;5060355;28;20044;-82
2022/06/26 00:29:53;;;;;;;8.63;5.38;;;17.40;99.90;;;;;;5058612;28;20037;-82
2022/06/26 00:32:19;;;;;;;8.63;5.53;;;17.30;99.90;;;;;;5058083;28;20547;-82
2022/06/26 00:34:45;;;;;;;9.27;5.35;;;17.30;99.90;;;;;;5058764;28;20037;-82
2022/06/26 00:37:10;;;;;;;10.93;6.07;;;17.30;99.90;;;;;;5059454;28;20047;-82
2022/06/26 00:39:36;;;;;;;8.23;5.60;;;17.30;99.90;;;;;;5059462;28;20040;-82
2022/06/26 00:42:01;;;;;;;8.27;5.88;;;17.30;99.90;;;;;;5063426;28;20043;-82
2022/06/26 00:44:27;;;;;;;16.95;6.85;;;17.30;99.90;;;;;;5045241;28;20483;-82
2022/06/26 00:46:53;;;;;;;12.43;5.82;;;17.30;99.90;;;;;;5063737;28;20119;-82
2022/06/26 00:49:19;;;;;;;9.00;6.47;;;17.30;99.90;;;;;;5062791;28;20044;-82
2022/06/26 00:51:48;;;;;;;10.63;6.75;;;17.30;99.90;;;;;;5061503;28;20059;-83
2022/06/26 00:54:14;;;;;;;6.80;5.90;;;17.30;99.90;;;;;;5062473;28;20495;-79
2022/06/26 00:56:41;;;;;;;9.18;5.10;;;17.30;99.90;;;;;;5064162;28;20036;-81
2022/06/26 00:59:06;;;;;;;8.48;5.15;;;17.30;99.90;;;;;;5060649;28;20053;-81
2022/06/26 01:01:34;;;;;;;8.73;4.10;;;17.20;99.90;;;;;;5043197;28;20097;-81
2022/06/26 01:04:00;;;;;;;4.53;3.92;;;17.20;99.90;;;;;;5042204;28;20539;-81
2022/06/26 01:06:28;;;;;;;6.20;4.05;;;17.10;99.90;;;;;;5042940;28;20369;-81
2022/06/26 01:08:54;;;;;;;6.55;3.53;;;17.10;99.90;;;;;;5041231;28;20041;-81
2022/06/26 01:11:20;;;;;;;4.93;3.83;;;17.10;99.90;;;;;;5059043;28;20044;-81
2022/06/26 01:13:52;;;;;;;5.25;3.03;;;17.10;99.90;;;;;;5061544;28;20076;-81
2022/06/26 01:16:19;;;;;;;6.40;4.13;;;17.10;99.90;;;;;;5061450;28;20048;-81
2022/06/26 01:18:47;;;;;;;4.28;3.55;;;17.10;99.90;;;;;;5060303;28;20051;-80
2022/06/26 01:21:13;;;;;;;6.90;4.28;;;17.10;99.90;;;;;;5062382;28;20124;-80
2022/06/26 01:23:39;;;;;;;5.00;3.70;;;17.10;99.90;;;;;;5044872;28;20226;-80
2022/06/26 01:26:05;;;;;;;3.60;3.30;;;17.20;99.90;;;;;;5078503;28;20044;-80
2022/06/26 01:28:31;;;;;;;4.13;3.38;;;17.20;99.90;;;;;;5043502;28;20123;-80
2022/06/26 01:30:56;;;;;;;6.70;4.65;;;17.20;99.90;;;;;;5060621;28;20147;-81
2022/06/26 01:33:22;;;;;;;5.38;3.85;;;17.20;99.90;;;;;;5060139;28;20052;-82
2022/06/26 01:35:48;;;;;;;5.93;3.47;;;17.20;99.90;;;;;;5062590;28;20564;-81
2022/06/26 01:38:22;;;;;;;8.15;4.57;;;17.10;99.90;;;;;;5061330;28;20561;-82
2022/06/26 01:40:53;;;;;;;3.95;3.65;;;17.20;99.90;;;;;;5062115;28;20499;-81
2022/06/26 01:43:21;;;;;;;3.30;3.05;;;17.20;99.90;;;;;;5059399;28;20090;-81
2022/06/26 01:45:52;;;;;;;4.47;3.72;;;17.20;99.90;;;;;;5042302;28;20108;-81
2022/06/26 01:48:18;;;;;;;4.90;3.35;;;17.20;99.90;;;;;;5041432;28;20073;-81
2022/06/26 01:50:45;;;;;;;4.25;3.17;;;17.20;99.90;;;;;;5040536;28;20400;-81
2022/06/26 01:53:11;;;;;;;5.03;3.05;;;17.20;99.90;;;;;;5043201;28;20053;-80
2022/06/26 01:55:38;;;;;;;5.60;3.67;;;17.10;99.90;;;;;;5041019;28;20511;-80
2022/06/26 01:58:04;;;;;;;4.75;3.30;;;17.10;99.90;;;;;;5042002;28;20380;-81
2022/06/26 02:00:35;;;;;;;5.43;3.30;;;17.10;99.90;;;;;;5041134;28;20045;-80
2022/06/26 02:03:01;;;;;;;5.63;3.38;;;17.10;99.90;;;;;;5024973;28;20138;-81
2022/06/26 02:05:27;;;;;;;3.42;3.20;;;17.10;99.90;;;;;;5044002;28;20052;-80
2022/06/26 02:07:53;;;;;;;5.10;3.78;;;17.10;99.90;;;;;;5061614;28;20051;-80
2022/06/26 02:15:49;;;;;;;5.05;3.97;;;17.20;99.90;;;;;;5061556;28;20095;-82
2022/06/26 02:18:15;;;;;;;3.90;3.42;;;17.10;99.90;;;;;;5061025;28;20123;-82
2022/06/26 02:20:41;;;;;;;4.32;3.42;;;17.20;99.90;;;;;;5062009;28;20522;-81
2022/06/26 02:23:07;;;;;;;5.00;3.58;;;17.20;99.90;;;;;;5059918;28;20040;-81
2022/06/26 02:25:32;;;;;;;3.70;3.40;;;17.20;99.90;;;;;;5060168;28;20068;-81
2022/06/26 02:27:58;;;;;;;3.78;3.47;;;17.20;99.90;;;;;;5059390;28;20063;-81
2022/06/26 02:30:23;;;;;;;4.43;3.95;;;17.20;99.90;;;;;;5061763;28;20094;-81
2022/06/26 02:32:49;;;;;;;5.95;3.35;;;17.20;99.90;;;;;;5075326;28;20052;-81
2022/06/26 02:35:15;;;;;;;6.80;4.15;;;17.20;99.90;;;;;;5076781;28;20049;-82
2022/06/26 02:37:40;;;;;;;4.25;3.42;;;17.20;99.90;;;;;;5062364;28;20475;-81
2022/06/26 02:40:07;;;;;;;4.57;3.38;;;17.10;99.90;;;;;;5060782;28;20135;-82
2022/06/26 02:42:32;;;;;;;5.65;4.05;;;17.10;99.90;;;;;;5076648;28;20052;-81
2022/06/26 02:44:58;;;;;;;4.82;3.45;;;17.10;99.90;;;;;;5061012;28;20036;-81
2022/06/26 02:47:23;;;;;;;7.72;4.43;;;17.10;99.90;;;;;;5076750;28;20052;-82
2022/06/26 02:49:49;;;;;;;4.13;3.65;;;17.10;99.90;;;;;;5042259;28;20158;-82
2022/06/26 02:52:15;;;;;;;4.40;3.80;;;17.10;99.90;;;;;;5061112;28;20041;-81
2022/06/26 02:54:40;;;;;;;4.95;3.58;;;17.10;99.90;;;;;;5053896;28;20504;-81
2022/06/26 02:57:06;;;;;;;2.42;2.03;;;17.10;99.90;;;;;;5039878;28;20045;-81
2022/06/26 02:59:31;;;;;;;2.75;2.15;;;17.00;99.90;;;;;;5040153;28;20508;-82
2022/06/26 03:01:58;;;;;;;2.53;1.73;;;17.00;99.90;;;;;;5038965;28;20049;-82
2022/06/26 03:04:23;;;;;;;1.20;1.10;;;17.00;99.90;;;;;;5038501;28;20584;-81
2022/06/26 03:06:49;;;;;;;2.30;0.82;;;16.90;99.90;;;;;;5040824;28;20045;-81
2022/06/26 03:09:15;;;;;;;1.88;0.85;;;16.90;99.90;;;;;;5056507;28;20029;-81
2022/06/26 03:11:41;;;;;;;1.92;0.95;;;16.80;99.90;;;;;;5059840;28;20623;-81
2022/06/26 03:14:08;;;;;;;1.90;1.10;;;16.80;99.90;;;;;;5060539;28;20045;-81
2022/06/26 03:16:33;;;;;;;1.00;0.90;;;16.80;99.90;;;;;;5043461;28;20625;-81
2022/06/26 03:18:59;;;;;;;2.03;1.15;;;16.70;99.90;;;;;;5058277;28;20060;-80
2022/06/26 03:21:25;;;;;;;1.30;1.20;;;16.70;99.90;;;;;;5060416;28;20496;-82
2022/06/26 03:24:02;;;;;;;4.30;1.77;;;16.70;99.90;;;;;;5060519;28;20044;-81
2022/06/26 03:26:32;;;;;;;1.38;1.20;;;16.70;99.90;;;;;;5060518;28;20036;-80
2022/06/26 03:28:59;;;;;;;3.20;1.60;;;16.80;99.90;;;;;;5060695;28;20050;-81
2022/06/26 03:31:25;;;;;;;3.05;1.35;;;16.80;99.90;;;;;;5060563;28;20052;-82
2022/06/26 03:33:51;;;;;;;2.45;2.05;;;16.80;99.90;;;;;;5058417;28;20098;-82
2022/06/26 03:36:17;;;;;;;3.78;1.65;;;16.80;99.90;;;;;;5059724;28;20475;-81
2022/06/26 03:38:43;;;;;;;2.63;2.22;;;16.90;99.90;;;;;;5058317;28;20094;-81
2022/06/26 03:41:10;;;;;;;3.78;2.10;;;16.90;99.90;;;;;;5039238;28;20044;-81
2022/06/26 03:43:36;;;;;;;3.38;2.55;;;16.90;99.90;;;;;;5039450;28;20125;-81
2022/06/26 03:46:02;;;;;;;3.97;2.53;;;16.90;99.90;;;;;;5040316;28;20459;-82
2022/06/26 03:48:28;;;;;;;4.85;2.70;;;16.80;99.90;;;;;;5039465;28;20068;-82
2022/06/26 03:50:54;;;;;;;3.55;3.00;;;16.80;99.90;;;;;;5040078;28;20074;-81
2022/06/26 03:53:20;;;;;;;4.40;3.03;;;16.80;99.90;;;;;;5039158;28;20407;-81
2022/06/26 03:55:45;;;;;;;6.25;3.40;;;16.90;99.90;;;;;;5055563;28;20045;-81
2022/06/26 03:58:11;;;;;;;5.55;4.47;;;16.90;99.90;;;;;;5041174;28;20048;-81
2022/06/26 04:00:37;;;;;;;5.95;3.58;;;16.90;99.90;;;;;;5055620;28;20446;-81
2022/06/26 04:03:07;;;;;;;5.53;4.10;;;16.90;99.90;;;;;;5043590;28;20109;-81
2022/06/26 04:05:33;;;;;;;4.88;4.03;;;16.90;99.90;;;;;;5058764;28;20669;-81
2022/06/26 04:07:59;;;;;;;7.68;4.43;;;16.90;99.90;;;;;;5059401;28;20041;-81
2022/06/26 04:10:25;;;;;;;4.45;4.05;;;16.90;99.90;;;;;;5075993;28;20049;-81
2022/06/26 04:12:50;;;;;;;5.57;4.97;;;16.90;99.90;;;;;;5058161;28;20437;-81
2022/06/26 04:15:17;;;;;;;5.38;4.85;;;16.90;99.90;;;;;;5062922;28;20033;-81
2022/06/26 04:17:42;;;;;;;8.13;5.30;;;17.00;99.90;;;;;;5063635;28;20055;-80
2022/06/26 04:20:09;;;;;;;7.30;6.20;;;16.90;99.90;;;;;;5062481;28;20045;-80
2022/06/26 04:22:34;;;;;;;7.70;6.35;;;17.00;99.90;;;;;;5062526;28;20067;-80
2022/06/26 04:25:00;;;;;;;8.32;6.47;;;17.00;99.90;;;;;;5063572;28;20029;-81
2022/06/26 04:27:26;;;;;;;7.68;6.88;;;17.00;99.90;;;;;;5062844;28;20102;-81
2022/06/26 04:29:52;;;;;;;8.65;7.75;;;17.00;99.90;;;;;;5063278;28;20090;-82
2022/06/26 04:32:17;;;;;;;9.27;6.85;;;17.00;99.90;;;;;;5062262;28;20826;-81
2022/06/26 04:34:43;;;;;;;12.10;8.43;;;16.90;99.90;;;;;;5061272;28;20049;-81
2022/06/26 04:37:08;;;;;;;10.32;7.63;;;17.00;99.90;;;;;;5062741;28;20040;-81
2022/06/26 04:39:34;;;;;;;13.52;8.93;;;16.90;99.90;;;;;;5061315;28;20045;-81
2022/06/26 04:42:00;;;;;;;10.45;7.43;;;16.90;99.90;;;;;;5042884;28;20039;-80
2022/06/26 04:44:26;;;;;;;10.55;7.47;;;17.00;99.90;;;;;;5042293;28;20065;-81
2022/06/26 04:46:52;;;;;;;10.35;8.07;;;17.00;99.90;;;;;;5043357;28;20047;-82
2022/06/26 04:49:18;;;;;;;10.02;7.38;;;17.00;99.90;;;;;;5041156;28;20540;-81
2022/06/26 04:51:44;;;;;;;12.85;8.93;;;17.00;99.90;;;;;;5043111;28;20047;-82
2022/06/26 04:54:09;;;;;;;10.68;8.60;;;17.00;99.90;;;;;;5042104;28;20049;-81
2022/06/26 04:56:36;;;;;;;10.77;8.85;;;17.00;99.90;;;;;;5043529;28;20063;-81
2022/06/26 04:59:03;;;;;;;10.10;8.05;;;17.00;99.90;;;;;;5041548;28;20571;-81
2022/06/26 05:01:29;;;;;;;11.50;9.02;;;17.00;99.90;;;;;;5042928;28;20072;-81
2022/06/26 05:03:55;;;;;;;14.05;10.20;;;17.10;99.90;;;;;;5040596;28;20092;-81
2022/06/26 05:06:22;;;;;;;15.35;9.85;;;17.10;99.90;;;;;;5038539;28;20040;-82
2022/06/26 05:08:47;;;;;;;13.57;10.48;;;17.10;99.90;;;;;;5044132;28;20052;-81
2022/06/26 05:11:13;;;;;;;16.33;10.73;;;17.10;99.90;;;;;;5063335;28;20047;-81
2022/06/26 05:13:40;;;;;;;16.77;11.77;;;17.10;99.90;;;;;;5062105;28;20132;-82
2022/06/26 05:16:06;;;;;;;14.93;11.68;;;17.20;99.90;;;;;;5061176;28;20533;-81
2022/06/26 05:18:31;;;;;;;24.38;13.30;;;17.20;99.90;;;;;;5060250;28;20055;-82
2022/06/26 05:20:57;;;;;;;22.33;14.18;;;17.20;99.90;;;;;;5043932;28;20040;-82
2022/06/26 05:23:24;;;;;;;20.73;13.68;;;17.20;99.90;;;;;;5063214;28;20402;-81
2022/06/26 05:25:51;;;;;;;19.33;13.73;;;17.20;99.90;;;;;;5061347;28;20057;-81
2022/06/26 05:28:16;;;;;;;21.58;14.68;;;17.20;99.90;;;;;;5062587;28;20040;-82
2022/06/26 05:30:42;;;;;;;20.23;15.23;;;17.20;99.90;;;;;;5063067;28;20040;-81
2022/06/26 05:33:08;;;;;;;18.55;14.27;;;17.20;99.90;;;;;;5061182;28;20040;-81
2022/06/26 05:35:34;;;;;;;21.85;15.65;;;17.20;99.90;;;;;;5062780;28;20572;-81
2022/06/26 05:38:00;;;;;;;23.38;16.10;;;17.20;99.90;;;;;;5060578;28;20097;-82
2022/06/26 05:40:26;;;;;;;26.20;15.73;;;17.20;99.90;;;;;;5058847;28;20043;-82
2022/06/26 05:42:54;;;;;;;20.42;14.55;;;17.20;99.90;;;;;;5040659;28;20626;-82
2022/06/26 05:45:20;;;;;;;20.23;15.88;;;17.20;99.90;;;;;;5042396;28;20045;-82
2022/06/26 05:47:45;;;;;;;20.55;14.57;;;17.20;99.90;;;;;;5040087;28;20045;-82
2022/06/26 05:50:11;;;;;;;24.98;15.90;;;17.20;99.90;;;;;;5041803;28;20486;-81
2022/06/26 05:52:37;;;;;;;22.55;14.50;;;17.20;99.90;;;;;;5042273;28;20037;-81
2022/06/26 05:55:03;;;;;;;21.85;15.55;;;17.20;99.90;;;;;;5041791;28;20075;-81
2022/06/26 05:57:28;;;;;;;21.88;13.73;;;17.20;99.90;;;;;;5041081;28;20051;-82
2022/06/26 05:59:54;;;;;;;22.48;14.98;;;17.20;99.90;;;;;;5041069;28;20582;-81
2022/06/26 06:02:19;;;;;;;24.98;15.90;;;17.20;99.90;;;;;;5039471;28;20131;-83
2022/06/26 06:04:45;;;;;;;23.00;14.07;;;17.20;99.90;;;;;;5040586;28;20446;-81
2022/06/26 06:07:10;;;;;;;19.98;14.10;;;17.20;99.90;;;;;;5057051;28;20098;-82
2022/06/26 06:09:36;;;;;;;18.98;13.93;;;17.20;99.90;;;;;;5060244;28;20591;-81
2022/06/26 06:12:03;;;;;;;19.45;14.07;;;17.20;99.90;;;;;;5061466;28;20075;-82
2022/06/26 06:14:29;;;;;;;17.30;13.30;;;17.10;99.90;;;;;;5061840;28;20033;-82
2022/06/26 06:16:55;;;;;;;25.73;12.98;;;17.10;99.90;;;;;;5060131;28;20040;-83
2022/06/26 06:19:20;;;;;;;15.77;12.38;;;17.10;99.90;;;;;;5059344;28;20412;-82
2022/06/26 06:21:46;;;;;;;22.63;13.80;;;17.10;99.90;;;;;;5060836;28;20748;-78
2022/06/26 06:24:12;;;;;;;14.50;12.70;;;17.10;99.90;;;;;;5062025;28;20063;-82
2022/06/26 06:26:38;;;;;;;24.83;14.68;;;17.10;99.90;;;;;;5061047;28;20048;-83
2022/06/26 06:29:03;;;;;;;25.42;14.23;;;17.20;99.90;;;;;;5076746;28;20059;-82
2022/06/26 06:31:29;;;;;;;19.38;14.30;;;17.20;99.90;;;;;;5061234;28;20055;-83
2022/06/26 06:33:55;;;;;;;19.50;11.77;;;17.20;99.90;;;;;;5060020;28;20059;-83
2022/06/26 06:36:20;;;;;;;20.45;13.15;;;17.20;99.90;;;;;;5058725;28;20087;-83
2022/06/26 06:38:46;;;;;;;20.45;13.68;;;17.30;99.90;;;;;;5049475;28;20081;-83
2022/06/26 06:41:12;;;;;;;14.93;12.45;;;17.30;99.90;;;;;;5060727;28;20039;-84
2022/06/26 06:43:37;;;;;;;14.63;11.32;;;17.40;99.90;;;;;;5055057;28;20049;-83
2022/06/26 06:46:03;;;;;;;16.35;10.98;;;17.40;99.90;;;;;;5057860;28;20666;-82
2022/06/26 06:48:29;;;;;;;14.85;11.20;;;17.40;99.90;;;;;;5044441;28;20087;-82
2022/06/26 06:50:55;;;;;;;12.18;10.82;;;17.40;99.90;;;;;;5052361;28;20033;-84
2022/06/26 06:53:24;;;;;;;12.57;10.50;;;17.50;99.90;;;;;;5051934;28;20098;-84
2022/06/26 06:55:50;;;;;;;13.30;9.95;;;17.50;99.90;;;;;;5055560;28;20380;-84
2022/06/26 06:58:15;;;;;;;9.55;7.22;;;17.50;99.90;;;;;;5059489;28;20274;-84
2022/06/26 07:00:41;;;;;;;13.45;8.50;;;17.60;99.90;;;;;;5058590;28;20502;-84
2022/06/26 07:03:07;;;;;;;10.65;7.00;;;17.50;99.90;;;;;;5058677;28;20040;-84
2022/06/26 07:05:33;;;;;;;9.18;7.45;;;17.60;99.90;;;;;;5060285;28;20395;-82
2022/06/26 07:07:59;;;;;;;8.52;7.00;;;17.60;99.90;;;;;;5058051;28;20079;-85
2022/06/26 07:10:25;;;;;;;8.13;6.53;;;17.60;99.90;;;;;;5058672;28;20041;-83
2022/06/26 07:12:55;;;;;;;8.50;6.70;;;17.70;99.90;;;;;;5058165;28;20051;-83
2022/06/26 07:15:21;;;;;;;7.75;6.70;;;17.70;99.90;;;;;;5059486;28;20071;-85
2022/06/26 07:17:47;;;;;;;7.53;5.50;;;17.70;99.90;;;;;;5058338;28;20133;-84
2022/06/26 07:20:13;;;;;;;9.27;6.90;;;17.80;99.90;;;;;;5060279;28;20040;-84
2022/06/26 07:22:39;;;;;;;12.02;5.38;;;17.80;99.90;;;;;;5059515;28;20044;-83
2022/06/26 07:25:05;;;;;;;4.45;3.95;;;17.80;99.90;;;;;;5040640;28;20415;-84
2022/06/26 07:27:30;;;;;;;7.90;4.25;;;17.80;99.90;;;;;;5058411;28;20126;-84
2022/06/26 07:29:56;;;;;;;5.18;3.78;;;17.80;99.90;;;;;;5055880;28;20052;-85
2022/06/26 07:32:22;;;;;;;6.13;3.97;;;17.80;99.90;;;;;;5057746;28;20044;-83
2022/06/26 07:34:47;;;;;;;6.03;4.43;;;17.80;99.90;;;;;;5059439;28;20471;-84
2022/06/26 07:37:13;;;;;;;3.80;3.22;;;17.90;99.90;;;;;;5055837;28;20045;-82
2022/06/26 07:39:39;;;;;;;5.18;4.18;;;17.90;99.90;;;;;;5057495;28;20091;-81
2022/06/26 07:42:05;;;;;;;4.60;3.97;;;17.90;99.90;;;;;;5052743;28;20041;-82
2022/06/26 07:44:31;;;;;;;4.15;3.72;;;18.00;99.90;;;;;;5073131;28;20056;-82
2022/06/26 07:46:59;;;;;;;10.65;2.97;;;18.00;99.90;;;;;;5056085;28;20247;-82
2022/06/26 07:49:25;;;;;;;3.30;2.70;;;18.10;99.90;;;;;;5062377;28;20120;-81
2022/06/26 07:51:51;;;;;;;4.28;2.95;;;18.10;99.90;;;;;;5057900;28;20120;-82
2022/06/26 07:54:16;;;;;;;3.10;2.80;;;18.10;99.90;;;;;;5064089;28;20762;-82
2022/06/26 07:56:42;;;;;;;2.22;2.05;;;18.00;99.90;;;;;;5063006;28;20102;-82
2022/06/26 07:59:08;;;;;;;2.42;2.22;;;18.00;99.90;;;;;;5063987;28;20127;-82
2022/06/26 08:01:34;;;;;;;3.33;3.08;;;18.10;99.90;;;;;;5045742;28;20132;-83
2022/06/26 08:04:01;;;;;;;4.05;2.90;;;18.10;99.90;;;;;;5062851;28;20036;-83
2022/06/26 08:06:29;;;;;;;4.20;2.25;;;18.10;99.90;;;;;;5064472;28;20044;-82
2022/06/26 08:08:55;;;;;;;2.30;1.98;;;18.10;99.90;;;;;;5063232;28;20119;-83
2022/06/26 08:11:21;;;;;;;2.60;1.58;;;18.10;99.90;;;;;;5061999;28;20135;-81
2022/06/26 08:13:47;;;;;;;2.70;2.17;;;18.10;99.90;;;;;;5062312;28;20168;-78
2022/06/26 08:16:13;;;;;;;3.03;2.33;;;18.10;99.90;;;;;;5055843;28;20444;-81
2022/06/26 08:18:39;;;;;;;5.32;2.28;;;18.10;99.90;;;;;;5056027;28;20122;-80
2022/06/26 08:23:49;;;;;;;3.22;2.65;;;18.10;99.90;;;;;;5060764;28;20102;-81
2022/06/26 08:26:14;;;;;;;2.70;2.50;;;18.10;99.90;;;;;;5060400;28;20044;-81
2022/06/26 08:28:40;;;;;;;4.15;2.83;;;18.20;99.90;;;;;;5060636;28;20047;-81
2022/06/26 08:31:06;;;;;;;2.47;2.28;;;18.30;99.90;;;;;;5061523;28;20097;-81
2022/06/26 08:33:31;;;;;;;4.00;2.00;;;18.40;99.90;;;;;;5060575;28;20131;-81
2022/06/26 08:35:57;;;;;;;2.67;1.70;;;18.40;99.90;;;;;;5058029;28;20106;-81
2022/06/26 08:38:22;;;;;;;2.05;1.83;;;18.50;99.90;;;;;;5045366;28;20051;-80
2022/06/26 08:40:49;;;;;;;1.90;1.80;;;18.50;99.90;;;;;;5062622;28;20178;-82
2022/06/26 08:43:17;;;;;;;1.75;1.65;;;18.50;99.90;;;;;;5057208;28;20078;-81
2022/06/26 08:45:44;;;;;;;2.55;1.45;;;18.50;99.90;;;;;;5063372;28;20107;-84
2022/06/26 08:48:15;;;;;;;2.13;2.03;;;18.50;99.90;;;;;;5057696;28;20044;-81
2022/06/26 08:50:40;;;;;;;1.90;1.55;;;18.60;99.90;;;;;;5044254;28;20040;-83
2022/06/26 08:53:06;;;;;;;3.17;2.33;;;18.60;99.90;;;;;;5062046;28;20068;-80
2022/06/26 08:55:32;;;;;;;2.05;1.85;;;18.60;99.90;;;;;;5060837;28;20072;-83
2022/06/26 08:57:57;;;;;;;2.30;1.83;;;18.70;99.90;;;;;;5062106;28;20094;-81
2022/06/26 09:00:23;;;;;;;1.70;0.98;;;18.60;99.90;;;;;;5060593;28;20371;-82
2022/06/26 09:02:49;;;;;;;2.55;1.25;;;18.70;99.90;;;;;;5061722;28;20433;-82
2022/06/26 09:05:14;;;;;;;2.25;1.08;;;18.70;99.90;;;;;;5057506;28;20701;-79
2022/06/26 09:07:53;;;;;;;2.35;1.95;;;18.70;99.90;;;;;;5041081;28;20052;-79
2022/06/26 09:10:20;;;;;;;1.08;1.08;;;18.70;99.90;;;;;;5058752;28;20040;-79
2022/06/26 09:12:52;;;;;;;1.00;1.00;;;18.60;99.90;;;;;;5062012;28;20044;-79
2022/06/26 09:15:20;;;;;;;2.42;1.85;;;18.70;99.90;;;;;;5057078;28;20094;-74
2022/06/26 09:18:04;;;;;;;4.07;1.20;;;18.70;99.90;;;;;;5055685;28;20040;-76
2022/06/26 09:20:31;;;;;;;13.18;1.70;;;18.70;99.90;;;;;;5059799;28;20040;-76
2022/06/26 09:22:59;;;;;;;2.05;1.38;;;18.70;99.90;;;;;;5041821;28;20055;-78
2022/06/26 09:25:44;;;;;;;3.22;1.85;;;18.70;99.90;;;;;;5056775;28;20036;-76
2022/06/26 09:28:16;;;;;;;3.90;1.90;;;18.80;99.90;;;;;;5054234;28;20051;-74
2022/06/26 09:30:58;;;;;;;1.95;1.05;;;18.90;99.90;;;;;;5055801;28;20036;-78
2022/06/26 09:33:34;;;;;;;2.05;1.73;;;18.90;99.90;;;;;;5059570;28;20040;-77
2022/06/26 09:36:03;;;;;;;3.05;1.35;;;18.90;99.90;;;;;;5046658;28;20139;-77
2022/06/26 09:38:33;;;;;;;1.35;1.25;;;19.10;99.90;;;;;;5058664;28;20086;-78
2022/06/26 09:41:01;;;;;;;3.15;1.35;;;19.20;99.90;;;;;;5060751;28;20094;-77
2022/06/26 09:43:31;;;;;;;1.35;1.25;;;19.20;99.90;;;;;;5062050;28;20090;-77
2022/06/26 09:45:59;;;;;;;2.67;2.13;;;19.30;99.90;;;;;;5060820;28;20040;-82
2022/06/26 09:48:25;;;;;;;2.35;1.90;;;19.30;99.90;;;;;;5056708;28;20070;-77
2022/06/26 09:50:52;;;;;;;2.25;1.45;;;19.40;99.90;;;;;;5051317;28;20501;-78
2022/06/26 09:53:19;;;;;;;1.55;1.38;;;19.40;99.90;;;;;;5058325;28;20116;-77
2022/06/26 09:55:50;;;;;;;2.05;1.48;;;19.50;99.90;;;;;;5060296;28;20098;-79
2022/06/26 09:58:17;;;;;;;2.78;1.50;;;19.40;99.90;;;;;;5059418;28;20542;-78
2022/06/26 10:06:25;;;;;;;1.65;1.52;;;19.50;99.90;;;;;;5058611;28;20056;-77
2022/06/26 10:06:27;;;;;;;2.80;1.80;;;19.50;99.90;;;;;;5054983;28;20401;-79
2022/06/26 10:08:55;;;;;;;1.25;1.17;;;19.50;99.90;;;;;;5045909;28;20391;-83
2022/06/26 10:11:23;;;;;;;2.30;2.08;;;19.60;99.90;;;;;;5059162;28;20040;-77
2022/06/26 10:13:50;;;;;;;3.50;1.83;;;19.60;99.90;;;;;;5057573;28;20410;-78
2022/06/26 10:16:28;;;;;;;4.53;1.58;;;19.60;99.90;;;;;;5055396;28;20047;-77
2022/06/26 10:19:34;;;;;;;3.95;2.28;;;19.60;99.90;;;;;;5056593;28;20055;-76
2022/06/26 10:22:00;;;;;;;2.25;1.92;;;19.60;99.90;;;;;;5052710;28;20037;-83
2022/06/26 10:24:26;;;;;;;4.50;1.98;;;19.60;99.90;;;;;;5041600;28;20429;-82
2022/06/26 10:27:02;;;;;;;2.25;1.80;;;19.70;99.90;;;;;;5057997;28;20098;-82
2022/06/26 10:29:36;;;;;;;1.73;1.63;;;19.70;99.90;;;;;;5049234;28;20121;-82
2022/06/26 10:32:02;;;;;;;1.80;1.70;;;19.70;99.90;;;;;;5054292;28;20052;-79
2022/06/26 10:34:28;;;;;;;5.00;1.80;;;19.80;99.90;;;;;;5059807;28;20094;-78
2022/06/26 10:36:58;;;;;;;4.82;2.42;;;19.80;99.90;;;;;;5041221;28;20493;-77
2022/06/26 10:39:35;;;;;;;6.30;2.33;;;19.80;99.90;;;;;;5055395;28;20352;-81
2022/06/26 10:45:08;;;;;;;3.10;2.30;;;19.80;99.90;;;;;;5055113;28;20407;-77
2022/06/26 10:47:54;;;;;;;6.55;2.53;;;19.90;99.90;;;;;;5055211;28;20051;-75
2022/06/26 10:50:26;;;;;;;3.40;2.35;;;20.00;99.90;;;;;;5058577;28;20032;-80
2022/06/26 10:52:52;;;;;;;4.63;2.28;;;20.00;99.90;;;;;;5058190;28;20411;-80
2022/06/26 10:55:17;;;;;;;2.78;2.05;;;20.10;99.90;;;;;;5051847;28;20043;-77
2022/06/26 10:57:43;;;;;;;2.85;2.63;;;20.10;99.90;;;;;;5058757;28;20588;-77
2022/06/26 11:00:12;;;;;;;2.92;2.60;;;20.20;99.90;;;;;;5059343;28;20086;-77
2022/06/26 11:02:41;;;;;;;3.08;2.47;;;20.20;99.90;;;;;;5058285;28;20044;-78
2022/06/26 11:05:08;;;;;;;2.92;2.72;;;20.20;99.90;;;;;;5058560;28;20427;-78
2022/06/26 11:07:53;;;;;;;3.25;2.95;;;20.30;99.90;;;;;;5059093;28;20076;-78
2022/06/26 11:10:20;;;;;;;2.67;2.30;;;20.30;99.90;;;;;;5056541;28;20048;-80
2022/06/26 11:12:48;;;;;;;3.67;2.65;;;20.30;99.90;;;;;;5057416;28;20044;-78
2022/06/26 11:15:23;;;;;;;2.45;2.25;;;20.20;99.90;;;;;;5057522;28;20538;-84
2022/06/26 11:17:58;;;;;;;7.90;2.88;;;20.30;99.90;;;;;;5057604;28;20475;-85
2022/06/26 11:23:13;;;;;;;3.47;2.92;;;20.30;99.90;;;;;;5057510;28;20398;-84
2022/06/26 11:25:41;;;;;;;5.93;2.45;;;20.30;99.90;;;;;;5053134;28;20394;-85
2022/06/26 11:28:08;;;;;;;10.82;2.90;;;20.40;99.90;;;;;;5056846;28;20072;-82
2022/06/26 11:30:36;;;;;;;4.53;3.50;;;20.40;99.90;;;;;;5059096;28;20070;-84
2022/06/26 11:33:02;;;;;;;4.35;3.83;;;20.40;99.90;;;;;;5057736;28;20434;-86
2022/06/26 11:35:29;;;;;;;4.85;4.15;;;20.40;99.90;;;;;;5058816;28;20063;-83
2022/06/26 11:37:54;;;;;;;8.75;5.38;;;20.50;99.90;;;;;;5057424;28;20044;-76
2022/06/26 11:40:21;;;;;;;5.43;3.95;;;20.50;99.90;;;;;;5058763;28;20067;-75
2022/06/26 11:42:55;;;;;;;5.35;4.85;;;20.50;99.90;;;;;;5056813;28;20113;-75
2022/06/26 11:45:24;;;;;;;5.15;4.65;;;20.50;99.90;;;;;;5057284;28;20051;-76
2022/06/26 11:47:50;;;;;;;7.00;5.13;;;20.60;99.90;;;;;;5057329;28;20215;-75
2022/06/26 11:50:20;;;;;;;4.25;3.85;;;20.60;99.90;;;;;;5054306;28;20036;-81
2022/06/26 11:52:54;;;;;;;4.07;3.78;;;20.60;99.90;;;;;;5055383;28;20048;-76
2022/06/26 11:55:20;;;;;;;4.97;3.88;;;20.60;99.90;;;;;;5055514;28;20090;-75
2022/06/26 11:57:47;;;;;;;6.47;3.83;;;20.60;99.90;;;;;;5057590;28;20049;-77
2022/06/26 12:00:13;;;;;;;5.10;3.53;;;20.60;99.90;;;;;;5058881;28;20450;-77
2022/06/26 12:02:45;;;;;;;7.55;3.45;;;20.60;99.90;;;;;;5057690;28;20059;-75
2022/06/26 12:05:11;;;;;;;2.53;2.33;;;20.60;99.90;;;;;;5057845;28;20431;-75
2022/06/26 12:07:47;;;;;;;3.60;3.30;;;20.60;99.90;;;;;;5051877;28;20037;-75
2022/06/26 12:10:23;;;;;;;3.53;3.22;;;20.70;99.90;;;;;;5049310;28;20075;-77
2022/06/26 12:12:50;;;;;;;3.45;2.80;;;20.80;99.90;;;;;;5057001;28;20051;-76
2022/06/26 12:15:16;;;;;;;2.60;2.25;;;20.80;99.90;;;;;;5056156;28;20051;-78
2022/06/26 12:17:42;;;;;;;2.97;2.67;;;20.90;99.90;;;;;;5057058;28;20518;-77
2022/06/26 12:20:08;;;;;;;3.95;3.63;;;21.00;99.90;;;;;;5037921;28;20045;-77
2022/06/26 12:22:35;;;;;;;2.97;2.40;;;21.00;99.90;;;;;;5038782;28;20052;-78
2022/06/26 12:25:02;;;;;;;2.83;2.55;;;21.00;99.90;;;;;;5051237;28;20064;-78
2022/06/26 12:27:42;;;;;;;2.25;2.05;;;21.00;99.90;;;;;;5051350;28;20072;-82
2022/06/26 12:30:19;;;;;;;3.78;2.88;;;21.10;99.90;;;;;;5055066;28;20422;-83
2022/06/26 12:32:45;;;;;;;2.20;2.00;;;21.10;99.90;;;;;;5055442;28;20121;-83
2022/06/26 12:35:10;;;;;;;2.28;2.03;;;21.10;99.90;;;;;;5059496;28;20060;-82
2022/06/26 12:37:37;;;;;;;1.55;1.40;;;21.20;99.90;;;;;;5059652;28;20402;-82
2022/06/26 12:40:04;;;;;;;7.65;2.17;;;21.20;99.90;;;;;;5060170;28;20040;-82
2022/06/26 12:42:30;;;;;;;3.88;1.85;;;21.30;99.90;;;;;;5059337;28;20159;-82
2022/06/26 12:44:55;;;;;;;3.92;2.35;;;21.30;99.90;;;;;;5061061;28;20040;-83
2022/06/26 12:47:21;;;;;;;2.05;1.95;;;21.30;99.90;;;;;;5059670;28;20041;-82
2022/06/26 12:49:46;;;;;;;4.03;2.78;;;21.30;99.90;;;;;;5061022;28;20127;-83
2022/06/26 12:52:12;;;;;;;2.55;1.55;;;21.40;99.90;;;;;;5060377;28;20047;-83
2022/06/26 12:54:37;;;;;;;1.35;1.35;;;21.40;99.90;;;;;;5060838;28;20074;-82
2022/06/26 12:57:03;;;;;;;3.28;1.85;;;21.40;99.90;;;;;;5060241;28;20036;-83
2022/06/26 12:59:29;;;;;;;2.28;2.08;;;21.50;99.90;;;;;;5059816;28;20036;-82